Terminal Aerodrome Forecast
Issued by NWS

Home | Current Version | Previous Version | Text Only | Print | Product List | Glossary On
Versions: 1 2 3 4 5 6 7 8 9 10 11 12 13 14 15
000
FTUS44 KTSA 310500
TAFRVS
TAF
KRVS 310520Z 3106/0106 16004KT P6SM SKC
     FM311400 17006KT P6SM SCT250
     FM311700 19012G20KT P6SM FEW040 SCT250
     FM312000 18014G24KT P6SM SCT040 SCT250=

USA.gov is the U.S. government's official web portal to all federal, state and local government web resources and services.